createdAt,value
2018-11-23T00:01:30.903Z,42.63
2018-11-23T00:03:58.785Z,42.77
2018-11-23T00:06:25.618Z,42.63
2018-11-23T00:08:53.428Z,43.03
2018-11-23T00:11:21.069Z,42.59
2018-11-23T00:13:48.932Z,42.64
2018-11-23T00:16:16.813Z,42.73
2018-11-23T00:18:44.450Z,42.68
2018-11-23T00:21:11.295Z,42.83
2018-11-23T00:23:38.161Z,42.53
2018-11-23T00:26:04.987Z,42.90
2018-11-23T00:28:31.877Z,42.83
2018-11-23T00:30:59.632Z,42.76
2018-11-23T00:33:27.412Z,43.13
2018-11-23T00:35:54.255Z,43.04
2018-11-23T00:38:21.911Z,42.73
2018-11-23T00:40:48.829Z,42.93
2018-11-23T00:43:16.358Z,42.98
2018-11-23T00:45:44.135Z,43.26
2018-11-23T00:48:11.788Z,42.72
2018-11-23T00:50:38.621Z,42.66
2018-11-23T00:53:06.224Z,43.08
2018-11-23T00:55:33.992Z,42.56
2018-11-23T00:58:00.836Z,42.75
2018-11-23T01:00:34.766Z,42.83
2018-11-23T01:03:02.584Z,42.96
2018-11-23T01:05:29.440Z,43.06
2018-11-23T01:07:56.269Z,42.85
2018-11-23T01:10:24.107Z,43.19
2018-11-23T01:12:52.090Z,42.95
2018-11-23T01:15:18.896Z,43.16
2018-11-23T01:17:47.633Z,42.98
2018-11-23T01:20:16.665Z,43.02
2018-11-23T01:22:44.098Z,43.01
2018-11-23T01:25:12.365Z,43.21
2018-11-23T01:27:40.909Z,43.31
2018-11-23T01:30:09.143Z,43.14
2018-11-23T01:32:36.007Z,43.16
2018-11-23T01:35:02.907Z,42.85
2018-11-23T01:37:30.685Z,43.16
2018-11-23T01:39:58.327Z,43.20
2018-11-23T01:42:26.229Z,42.95
2018-11-23T01:44:53.846Z,43.64
2018-11-23T01:47:22.158Z,43.39
2018-11-23T01:49:49.031Z,43.23
2018-11-23T01:52:16.711Z,43.52
2018-11-23T01:54:43.657Z,43.96
2018-11-23T01:57:11.341Z,43.50
2018-11-23T01:59:39.039Z,43.47
2018-11-23T02:02:07.025Z,43.43
2018-11-23T02:04:34.800Z,43.31
2018-11-23T02:07:02.575Z,43.39
2018-11-23T02:09:29.425Z,43.44
2018-11-23T02:11:57.291Z,43.43
2018-11-23T02:14:24.111Z,43.57
2018-11-23T02:16:50.968Z,43.67
2018-11-23T02:19:19.135Z,44.01
2018-11-23T02:21:47.073Z,43.61
2018-11-23T02:24:13.911Z,43.39
2018-11-23T02:26:41.701Z,43.71
2018-11-23T02:29:09.554Z,43.53
2018-11-23T02:31:37.830Z,43.86
2018-11-23T02:34:05.529Z,43.67
2018-11-23T02:36:32.354Z,43.72
2018-11-23T02:39:00.053Z,43.42
2018-11-23T02:41:27.767Z,43.91
2018-11-23T02:43:54.698Z,43.67
2018-11-23T02:46:22.537Z,43.79
2018-11-23T02:48:49.355Z,43.81
2018-11-23T02:51:16.960Z,43.78
2018-11-23T02:53:45.526Z,44.09
2018-11-23T02:56:13.200Z,44.01
2018-11-23T02:58:40.985Z,43.57
2018-11-23T03:01:08.697Z,43.90
2018-11-23T03:03:36.397Z,43.40
2018-11-23T03:06:04.141Z,43.93
2018-11-23T03:08:32.027Z,43.66
2018-11-23T03:11:06.673Z,43.59
2018-11-23T03:13:33.541Z,43.83
2018-11-23T03:19:23.767Z,43.75
2018-11-23T03:21:51.509Z,43.43
2018-11-23T03:24:18.350Z,43.68
2018-11-23T03:26:45.683Z,43.78
2018-11-23T03:29:13.503Z,43.37
2018-11-23T03:34:49.833Z,43.97
2018-11-23T03:37:17.816Z,43.54
2018-11-23T03:39:45.737Z,43.86
2018-11-23T03:44:55.006Z,43.73
2018-11-23T03:47:21.875Z,44.03
2018-11-23T03:49:48.716Z,43.59
2018-11-23T03:52:16.248Z,43.41
2018-11-23T03:54:43.087Z,43.65
2018-11-23T03:57:09.945Z,44.12
2018-11-23T03:59:37.767Z,43.96
2018-11-23T04:02:05.604Z,43.81
2018-11-23T04:04:32.429Z,43.87
2018-11-23T04:06:59.287Z,43.96
2018-11-23T04:09:26.112Z,44.15
2018-11-23T04:11:52.954Z,43.93
2018-11-23T04:14:20.675Z,43.78
2018-11-23T04:16:47.513Z,44.12
2018-11-23T04:19:15.998Z,43.64
2018-11-23T04:21:42.853Z,43.88
2018-11-23T04:24:09.692Z,43.98
2018-11-23T04:26:37.358Z,44.03
2018-11-23T04:29:05.211Z,43.81
2018-11-23T04:31:33.015Z,44.01
2018-11-23T04:34:00.970Z,44.13
2018-11-23T04:36:28.603Z,43.96
2018-11-23T04:38:55.484Z,43.98
2018-11-23T04:41:22.313Z,44.10
2018-11-23T04:43:50.253Z,43.98
2018-11-23T04:46:17.247Z,44.21
2018-11-23T04:48:44.064Z,44.16
2018-11-23T04:51:10.908Z,44.11
2018-11-23T04:53:37.745Z,44.37
2018-11-23T04:56:05.517Z,43.72
2018-11-23T04:58:33.177Z,44.20
2018-11-23T05:01:00.062Z,43.93
2018-11-23T05:03:26.922Z,44.39
2018-11-23T05:05:53.793Z,43.98
2018-11-23T05:08:20.634Z,44.21
2018-11-23T05:10:48.379Z,44.01
2018-11-23T05:13:16.117Z,44.44
2018-11-23T05:15:42.949Z,44.16
2018-11-23T05:18:09.772Z,43.81
2018-11-23T05:20:36.592Z,43.83
2018-11-23T05:23:03.448Z,43.88
2018-11-23T05:25:30.256Z,44.21
2018-11-23T05:27:57.131Z,43.91
2018-11-23T05:30:23.988Z,44.22
2018-11-23T05:32:50.899Z,43.99
2018-11-23T05:35:18.968Z,43.88
2018-11-23T05:37:47.230Z,44.01
2018-11-23T05:40:16.708Z,43.64
2018-11-23T05:42:44.530Z,43.87
2018-11-23T05:45:14.072Z,44.29
2018-11-23T05:47:40.941Z,44.41
2018-11-23T05:50:10.188Z,44.16
2018-11-23T05:52:37.862Z,44.42
2018-11-23T05:55:05.312Z,44.24
2018-11-23T05:57:33.015Z,43.83
2018-11-23T06:00:00.887Z,44.25
2018-11-23T06:02:27.827Z,43.94
2018-11-23T06:04:55.541Z,44.35
2018-11-23T06:07:22.863Z,44.42
2018-11-23T06:09:49.673Z,44.05
2018-11-23T06:12:17.090Z,43.90
2018-11-23T06:14:43.913Z,44.12
2018-11-23T06:17:10.794Z,44.15
2018-11-23T06:19:37.644Z,43.90
2018-11-23T06:22:04.901Z,43.96
2018-11-23T06:24:32.191Z,44.09
2018-11-23T06:26:59.752Z,44.24
2018-11-23T06:29:27.387Z,43.85
2018-11-23T06:31:54.231Z,44.02
2018-11-23T06:34:21.898Z,44.26
2018-11-23T06:36:49.563Z,44.14
2018-11-23T06:39:17.232Z,44.19
2018-11-23T06:41:45.942Z,44.42
2018-11-23T06:44:12.770Z,44.34
2018-11-23T06:46:39.684Z,43.88
2018-11-23T06:49:07.397Z,43.89
2018-11-23T06:51:34.321Z,43.80
2018-11-23T06:54:01.867Z,43.90
2018-11-23T06:56:28.702Z,44.08
2018-11-23T06:58:56.529Z,44.01
2018-11-23T07:01:24.172Z,43.89
2018-11-23T07:03:51.919Z,44.17
2018-11-23T07:06:19.684Z,44.64
2018-11-23T07:08:52.375Z,44.02
2018-11-23T07:11:15.946Z,44.20
2018-11-23T07:13:43.624Z,44.41
2018-11-23T07:16:11.423Z,44.41
2018-11-23T07:18:39.053Z,44.34
2018-11-23T07:21:06.905Z,43.92
2018-11-23T07:23:34.625Z,44.07
2018-11-23T07:26:02.425Z,44.03
2018-11-23T07:28:29.733Z,44.03
2018-11-23T07:31:02.150Z,44.62
2018-11-23T07:33:23.657Z,44.28
2018-11-23T07:35:50.626Z,44.25
2018-11-23T07:38:18.402Z,44.18
2018-11-23T07:40:51.678Z,44.13
2018-11-23T07:43:18.520Z,44.26
2018-11-23T07:45:46.353Z,44.73
2018-11-23T07:48:13.277Z,43.83
2018-11-23T07:50:40.224Z,44.45
2018-11-23T07:53:07.345Z,44.33
2018-11-23T07:55:35.208Z,44.29
2018-11-23T07:58:03.183Z,44.44
2018-11-23T08:00:30.088Z,44.38
2018-11-23T08:02:56.933Z,44.80
2018-11-23T08:05:23.973Z,44.39
2018-11-23T08:07:50.788Z,44.67
2018-11-23T08:10:17.188Z,44.37
2018-11-23T08:12:46.102Z,44.84
2018-11-23T08:15:15.701Z,44.88
2018-11-23T08:17:42.863Z,44.89
2018-11-23T08:20:11.397Z,45.00
2018-11-23T08:22:38.638Z,45.13
2018-11-23T08:25:05.917Z,44.96
2018-11-23T08:27:32.757Z,44.63
2018-11-23T08:30:00.511Z,44.67
2018-11-23T08:32:27.860Z,45.15
2018-11-23T08:34:54.696Z,44.91
2018-11-23T08:37:21.537Z,45.34
2018-11-23T08:39:48.378Z,44.68
2018-11-23T08:42:16.104Z,44.83
2018-11-23T08:44:43.897Z,44.58
2018-11-23T08:47:10.727Z,44.91
2018-11-23T08:49:37.563Z,44.49
2018-11-23T08:52:04.496Z,45.06
2018-11-23T08:54:31.856Z,44.74
2018-11-23T08:56:58.753Z,45.03
2018-11-23T08:59:26.718Z,44.98
2018-11-23T09:01:53.607Z,44.85
2018-11-23T09:04:21.250Z,44.85
2018-11-23T09:06:48.058Z,45.01
2018-11-23T09:09:15.872Z,44.82
2018-11-23T09:11:42.705Z,44.85
2018-11-23T09:14:10.269Z,44.87
2018-11-23T09:16:37.187Z,45.24
2018-11-23T09:19:04.322Z,44.93
2018-11-23T09:21:31.353Z,45.12
2018-11-23T09:23:59.053Z,45.30
2018-11-23T09:26:25.908Z,45.07
2018-11-23T09:28:52.753Z,44.91
2018-11-23T09:31:19.611Z,45.18
2018-11-23T09:33:48.806Z,45.19
2018-11-23T09:36:16.738Z,45.14
2018-11-23T09:38:44.407Z,44.98
2018-11-23T09:41:12.641Z,45.52
2018-11-23T09:43:39.643Z,45.13
2018-11-23T09:46:08.533Z,44.98
2018-11-23T09:48:35.394Z,44.93
2018-11-23T09:51:02.276Z,45.24
2018-11-23T09:53:29.313Z,44.91
2018-11-23T09:55:56.159Z,45.08
2018-11-23T09:58:23.952Z,45.04
2018-11-23T10:00:50.924Z,45.03
2018-11-23T10:03:17.865Z,45.50
2018-11-23T10:05:45.873Z,45.11
2018-11-23T10:08:12.734Z,45.08
2018-11-23T10:10:39.685Z,45.17
2018-11-23T10:13:06.856Z,45.34
2018-11-23T10:15:33.971Z,45.51
2018-11-23T10:18:02.143Z,45.34
2018-11-23T10:20:29.401Z,45.28
2018-11-23T10:22:56.275Z,45.31
2018-11-23T10:25:24.486Z,45.35
2018-11-23T10:27:51.408Z,45.42
2018-11-23T10:30:24.332Z,45.43
2018-11-23T10:32:52.416Z,45.15
2018-11-23T10:35:19.286Z,45.34
2018-11-23T10:37:48.671Z,45.55
2018-11-23T10:40:16.807Z,45.55
2018-11-23T10:42:44.053Z,45.21
2018-11-23T10:45:11.904Z,45.48
2018-11-23T10:47:38.898Z,45.19
2018-11-23T10:50:07.164Z,46.00
2018-11-23T10:52:34.065Z,45.12
2018-11-23T10:55:00.911Z,45.22
2018-11-23T10:57:28.819Z,45.27
2018-11-23T10:59:58.715Z,45.79
2018-11-23T11:02:31.229Z,45.58
2018-11-23T11:05:03.893Z,45.68
2018-11-23T11:07:30.919Z,45.27
2018-11-23T11:09:57.889Z,45.68
2018-11-23T11:12:24.893Z,46.30
2018-11-23T11:14:52.686Z,45.37
2018-11-23T11:17:19.553Z,45.48
2018-11-23T11:19:47.377Z,45.49
2018-11-23T11:22:16.204Z,45.64
2018-11-23T11:24:44.089Z,46.25
2018-11-23T11:27:11.027Z,45.96
2018-11-23T11:29:38.025Z,46.01
2018-11-23T11:32:04.889Z,45.69
2018-11-23T11:34:31.769Z,46.12
2018-11-23T11:36:58.605Z,45.50
2018-11-23T11:39:26.395Z,45.82
2018-11-23T11:41:53.492Z,45.95
2018-11-23T11:44:21.548Z,46.06
2018-11-23T11:46:48.726Z,45.48
2018-11-23T11:49:16.530Z,45.75
2018-11-23T11:51:43.584Z,45.47
2018-11-23T11:54:10.555Z,45.80
2018-11-23T11:56:37.599Z,45.75
2018-11-23T11:59:04.750Z,45.61
2018-11-23T12:01:32.002Z,45.67
2018-11-23T12:03:59.759Z,45.91
2018-11-23T12:06:27.548Z,45.70
2018-11-23T12:08:54.407Z,45.78
2018-11-23T12:11:22.357Z,45.78
2018-11-23T12:13:49.186Z,45.98
2018-11-23T12:16:16.134Z,45.91
2018-11-23T12:18:43.053Z,45.37
2018-11-23T12:21:10.339Z,45.91
2018-11-23T12:23:37.280Z,45.60
2018-11-23T12:26:04.327Z,45.87
2018-11-23T12:28:31.266Z,45.60
2018-11-23T12:30:59.071Z,45.59
2018-11-23T12:33:25.978Z,45.73
2018-11-23T12:35:54.338Z,46.64
2018-11-23T12:38:21.206Z,45.83
2018-11-23T12:40:48.041Z,45.77
2018-11-23T12:43:15.478Z,46.22
2018-11-23T12:45:42.327Z,45.75
2018-11-23T12:48:10.187Z,45.95
2018-11-23T12:50:37.022Z,46.09
2018-11-23T12:53:06.457Z,46.24
2018-11-23T12:55:31.873Z,47.54
2018-11-23T12:57:58.740Z,46.63
2018-11-23T13:00:27.735Z,46.21
2018-11-23T13:02:56.913Z,46.04
2018-11-23T13:05:25.733Z,45.88
2018-11-23T13:07:54.305Z,45.54
2018-11-23T13:10:21.997Z,46.48
2018-11-23T13:12:50.927Z,46.08
2018-11-23T13:15:16.685Z,46.11
2018-11-23T13:17:43.591Z,45.96
2018-11-23T13:20:12.799Z,45.98
2018-11-23T13:22:39.759Z,45.65
2018-11-23T13:25:08.520Z,45.83
2018-11-23T13:27:35.375Z,45.70
2018-11-23T13:30:03.114Z,45.68
2018-11-23T13:32:30.926Z,45.75
2018-11-23T13:34:57.802Z,45.88
2018-11-23T13:37:25.621Z,46.09
2018-11-23T13:39:52.455Z,45.95
2018-11-23T13:42:20.392Z,45.90
2018-11-23T13:44:47.347Z,46.15
2018-11-23T13:47:14.209Z,46.37
2018-11-23T13:49:41.039Z,46.73
2018-11-23T13:52:07.893Z,47.25
2018-11-23T13:54:34.747Z,46.78
2018-11-23T13:57:01.813Z,46.81
2018-11-23T13:59:28.637Z,46.54
2018-11-23T14:01:55.513Z,46.71
2018-11-23T14:04:22.400Z,46.61
2018-11-23T14:06:49.258Z,46.12
2018-11-23T14:09:16.793Z,46.16
2018-11-23T14:11:43.639Z,45.87
2018-11-23T14:14:11.089Z,46.46
2018-11-23T14:16:38.027Z,46.29
2018-11-23T14:19:05.044Z,46.45
2018-11-23T14:21:32.839Z,46.25
2018-11-23T14:24:00.150Z,46.37
2018-11-23T14:26:27.041Z,46.22
2018-11-23T14:28:53.924Z,45.89
2018-11-23T14:31:20.833Z,45.97
2018-11-23T14:33:47.739Z,45.86
2018-11-23T14:36:14.605Z,45.99
2018-11-23T14:38:42.010Z,46.14
2018-11-23T14:41:08.916Z,46.12
2018-11-23T14:43:35.793Z,46.21
2018-11-23T14:46:02.668Z,45.96
2018-11-23T14:48:29.537Z,45.99
2018-11-23T14:50:56.420Z,46.08
2018-11-23T14:53:23.305Z,46.06
2018-11-23T14:55:50.157Z,46.04
2018-11-23T14:58:17.011Z,46.58
2018-11-23T15:00:43.845Z,45.96
2018-11-23T15:03:10.666Z,46.24
2018-11-23T15:05:38.160Z,46.14
2018-11-23T15:08:05.229Z,45.95
2018-11-23T15:10:33.026Z,46.00
2018-11-23T15:13:01.603Z,46.03
2018-11-23T15:15:30.759Z,46.07
2018-11-23T15:17:58.419Z,46.13
2018-11-23T15:20:27.162Z,46.06
2018-11-23T15:22:56.783Z,46.18
2018-11-23T15:25:23.682Z,46.26
2018-11-23T15:27:50.563Z,46.02
2018-11-23T15:30:19.581Z,45.93
2018-11-23T15:32:48.510Z,45.96
2018-11-23T15:35:16.687Z,46.35
2018-11-23T15:37:43.576Z,46.23
2018-11-23T15:40:16.984Z,46.09
2018-11-23T15:42:44.297Z,46.04
2018-11-23T15:45:13.261Z,46.42
2018-11-23T15:47:40.115Z,46.22
2018-11-23T15:50:07.737Z,45.91
2018-11-23T15:52:34.574Z,46.35
2018-11-23T15:55:01.408Z,45.91
2018-11-23T15:57:29.081Z,46.26
2018-11-23T15:59:56.711Z,46.32
2018-11-23T16:02:23.559Z,46.26
2018-11-23T16:04:50.518Z,46.13
2018-11-23T16:07:17.416Z,46.41
2018-11-23T16:09:44.265Z,46.50
2018-11-23T16:12:12.023Z,46.08
2018-11-23T16:14:39.960Z,46.29
2018-11-23T16:17:07.754Z,46.22
2018-11-23T16:19:34.664Z,46.32
2018-11-23T16:22:01.671Z,46.01
2018-11-23T16:24:28.483Z,46.12
2018-11-23T16:26:55.325Z,46.49
2018-11-23T16:29:24.114Z,46.95
2018-11-23T16:31:50.928Z,46.27
2018-11-23T16:34:17.809Z,46.29
2018-11-23T16:36:45.547Z,46.30
2018-11-23T16:39:13.090Z,46.32
2018-11-23T16:41:40.041Z,46.36
2018-11-23T16:44:07.092Z,46.29
2018-11-23T16:46:33.993Z,46.21
2018-11-23T16:49:00.903Z,46.53
2018-11-23T16:51:27.842Z,46.25
2018-11-23T16:53:56.082Z,46.58
2018-11-23T16:56:23.111Z,46.27
2018-11-23T16:58:50.170Z,46.42
2018-11-23T17:01:17.423Z,46.32
2018-11-23T17:03:46.512Z,46.40
2018-11-23T17:06:14.488Z,46.58
2018-11-23T17:08:42.581Z,46.50
2018-11-23T17:11:09.721Z,46.52
2018-11-23T17:13:37.889Z,46.33
2018-11-23T17:16:06.581Z,46.32
2018-11-23T17:18:34.386Z,46.29
2018-11-23T17:21:01.238Z,46.34
2018-11-23T17:23:28.094Z,46.40
2018-11-23T17:25:55.591Z,46.54
2018-11-23T17:28:22.489Z,46.79
2018-11-23T17:30:49.318Z,46.33
2018-11-23T17:33:16.785Z,46.48
2018-11-23T17:35:43.722Z,46.24
2018-11-23T17:38:10.608Z,46.42
2018-11-23T17:40:38.860Z,46.29
2018-11-23T17:43:05.748Z,46.60
2018-11-23T17:45:33.138Z,46.45
2018-11-23T17:48:00.238Z,46.43
2018-11-23T17:50:28.352Z,46.55
2018-11-23T17:52:56.117Z,46.27
2018-11-23T17:55:23.805Z,46.17
2018-11-23T17:57:51.385Z,46.09
2018-11-23T18:00:20.066Z,46.31
2018-11-23T18:02:47.442Z,46.55
2018-11-23T18:05:15.887Z,46.60
2018-11-23T18:07:43.516Z,46.37
2018-11-23T18:10:12.336Z,46.39
2018-11-23T18:12:39.125Z,46.38
2018-11-23T18:15:08.908Z,46.38
2018-11-23T18:17:36.575Z,46.40
2018-11-23T18:20:05.822Z,46.78
2018-11-23T18:22:33.704Z,46.48
2018-11-23T18:25:01.367Z,46.50
2018-11-23T18:27:29.131Z,46.65
2018-11-23T18:29:55.961Z,46.58
2018-11-23T18:32:22.934Z,46.67
2018-11-23T18:34:50.968Z,46.60
2018-11-23T18:37:18.425Z,46.92
2018-11-23T18:39:48.138Z,46.47
2018-11-23T18:42:16.876Z,46.63
2018-11-23T18:44:46.193Z,46.63
2018-11-23T18:47:15.659Z,46.71
2018-11-23T18:49:42.627Z,46.42
2018-11-23T18:52:10.385Z,46.68
2018-11-23T18:54:38.231Z,46.78
2018-11-23T18:57:05.076Z,46.49
2018-11-23T18:59:32.048Z,46.59
2018-11-23T19:01:59.249Z,46.47
2018-11-23T19:04:28.109Z,46.84
2018-11-23T19:06:56.867Z,46.75
2018-11-23T19:09:24.312Z,46.59
2018-11-23T19:11:51.121Z,46.51
2018-11-23T19:14:18.893Z,46.83
2018-11-23T19:16:46.737Z,46.71
2018-11-23T19:19:13.960Z,46.65
2018-11-23T19:21:42.256Z,47.06
2018-11-23T19:24:09.476Z,46.82
2018-11-23T19:26:38.783Z,46.91
2018-11-23T19:29:06.900Z,46.47
2018-11-23T19:31:34.322Z,46.59
2018-11-23T19:34:01.199Z,46.68
2018-11-23T19:36:28.170Z,46.60
2018-11-23T19:38:55.062Z,46.75
2018-11-23T19:41:21.994Z,46.45
2018-11-23T19:43:48.891Z,46.40
2018-11-23T19:46:16.472Z,46.53
2018-11-23T19:48:43.410Z,46.38
2018-11-23T19:51:11.322Z,46.38
2018-11-23T19:53:38.218Z,46.53
2018-11-23T19:56:05.239Z,46.33
2018-11-23T19:58:32.188Z,46.43
2018-11-23T20:00:58.999Z,46.17
2018-11-23T20:03:25.844Z,46.58
2018-11-23T20:05:52.681Z,46.35
2018-11-23T20:08:19.557Z,46.53
2018-11-23T20:10:47.153Z,46.22
2018-11-23T20:13:13.986Z,46.50
2018-11-23T20:15:40.940Z,46.31
2018-11-23T20:18:07.906Z,46.38
2018-11-23T20:20:35.582Z,46.29
2018-11-23T20:23:02.486Z,46.40
2018-11-23T20:25:29.383Z,46.23
2018-11-23T20:27:56.366Z,46.19
2018-11-23T20:30:23.217Z,46.20
2018-11-23T20:32:50.015Z,46.50
2018-11-23T20:35:18.248Z,46.11
2018-11-23T20:37:46.251Z,46.38
2018-11-23T20:40:14.436Z,46.28
2018-11-23T20:42:41.305Z,46.06
2018-11-23T20:45:09.740Z,46.24
2018-11-23T20:47:36.577Z,46.21
2018-11-23T20:50:04.239Z,45.99
2018-11-23T20:52:31.905Z,46.32
2018-11-23T20:54:58.741Z,46.04
2018-11-23T20:57:26.382Z,45.86
2018-11-23T20:59:53.204Z,46.18
2018-11-23T21:02:20.061Z,46.11
2018-11-23T21:04:46.896Z,46.30
2018-11-23T21:07:15.984Z,46.06
2018-11-23T21:09:42.833Z,46.20
2018-11-23T21:12:09.645Z,46.20
2018-11-23T21:14:37.944Z,46.08
2018-11-23T21:17:05.796Z,46.10
2018-11-23T21:19:32.582Z,46.04
2018-11-23T21:21:59.393Z,46.20
2018-11-23T21:24:27.174Z,46.47
2018-11-23T21:26:54.021Z,46.73
2018-11-23T21:29:20.890Z,46.54
2018-11-23T21:31:48.808Z,46.07
2018-11-23T21:34:15.911Z,45.99
2018-11-23T21:36:42.785Z,46.83
2018-11-23T21:39:13.774Z,47.02
2018-11-23T21:41:38.244Z,46.22
2018-11-23T21:44:05.226Z,47.04
2018-11-23T21:46:32.149Z,46.88
2018-11-23T21:48:59.159Z,45.74
2018-11-23T21:51:26.943Z,46.28
2018-11-23T21:53:54.617Z,46.19
2018-11-23T21:56:21.446Z,45.89
2018-11-23T21:58:48.299Z,46.37
2018-11-23T22:01:16.411Z,45.86
2018-11-23T22:03:45.441Z,45.60
2018-11-23T22:06:12.433Z,46.23
2018-11-23T22:08:39.265Z,46.07
2018-11-23T22:11:06.115Z,45.45
2018-11-23T22:13:32.937Z,45.68
2018-11-23T22:15:59.782Z,45.75
2018-11-23T22:18:26.644Z,45.86
2018-11-23T22:20:53.525Z,46.19
2018-11-23T22:23:20.523Z,45.62
2018-11-23T22:25:47.598Z,46.35
2018-11-23T22:28:15.859Z,45.86
2018-11-23T22:30:42.905Z,46.32
2018-11-23T22:33:10.615Z,46.10
2018-11-23T22:35:38.555Z,45.70
2018-11-23T22:38:05.550Z,45.78
2018-11-23T22:40:33.351Z,46.32
2018-11-23T22:43:00.217Z,45.63
2018-11-23T22:45:27.175Z,46.06
2018-11-23T22:47:54.020Z,45.99
2018-11-23T22:50:21.340Z,45.81
2018-11-23T22:52:48.195Z,45.69
2018-11-23T22:55:15.909Z,46.17
2018-11-23T22:57:43.263Z,45.74
2018-11-23T23:00:17.348Z,45.55
2018-11-23T23:02:45.389Z,46.03
2018-11-23T23:05:12.219Z,45.75
2018-11-23T23:07:39.940Z,45.89
2018-11-23T23:10:07.430Z,45.86
2018-11-23T23:12:34.825Z,45.57
2018-11-23T23:15:02.661Z,46.06
2018-11-23T23:17:29.560Z,46.06
2018-11-23T23:19:57.428Z,46.42
2018-11-23T23:22:24.266Z,45.96
2018-11-23T23:24:51.184Z,45.57
2018-11-23T23:27:18.954Z,45.70
2018-11-23T23:29:46.880Z,45.83
2018-11-23T23:32:14.509Z,46.01
2018-11-23T23:34:42.543Z,45.70
2018-11-23T23:37:09.360Z,45.96
2018-11-23T23:39:36.379Z,45.75
2018-11-23T23:42:04.830Z,46.02
2018-11-23T23:44:32.501Z,45.45
2018-11-23T23:47:00.367Z,45.90
2018-11-23T23:49:28.068Z,45.35
2018-11-23T23:51:54.907Z,45.93
2018-11-23T23:54:22.759Z,45.66
2018-11-23T23:56:50.657Z,45.19
2018-11-23T23:59:17.591Z,45.49
